Time;durP1;ratioP1;P1;durP2;ratioP2;P2;SDS_P1;SDS_P2;PMS_P1;PMS_P2;Temp;Humidity;BMP_temperature;BMP_pressure;BME280_temperature;BME280_humidity;BME280_pressure;Samples;Min_cycle;Max_cycle;Signal;HPM_P1;HPM_P2
2023/08/23 00:00:52;;;;;;;3.90;3.20;;;;;;;18.45;76.85;99992.48;217429;1257;139147;-66
2023/08/23 00:06:10;;;;;;;4.00;3.50;;;;;;;18.35;76.83;99994.13;217805;1257;139555;-66
2023/08/23 00:11:13;;;;;;;5.90;3.60;;;;;;;18.26;76.72;100000.23;217545;1261;140447;-66
2023/08/23 00:16:15;;;;;;;5.90;2.90;;;;;;;18.21;76.86;100010.19;217360;1257;140192;-65
2023/08/23 00:21:18;;;;;;;3.70;3.40;;;;;;;18.14;76.95;100012.59;218297;1259;229387;-65
2023/08/23 00:26:21;;;;;;;5.10;4.70;;;;;;;18.00;76.91;100013.64;217400;1257;139215;-64
2023/08/23 00:31:24;;;;;;;2.90;2.70;;;;;;;17.85;77.17;100018.02;217328;1261;140133;-65
2023/08/23 00:36:28;;;;;;;4.80;3.30;;;;;;;17.72;77.49;100021.02;217564;1259;140714;-65
2023/08/23 00:41:31;;;;;;;27.70;4.90;;;;;;;17.64;77.68;100020.94;217492;1257;139718;-65
2023/08/23 00:46:35;;;;;;;5.90;4.10;;;;;;;17.58;77.87;100020.55;217931;1257;140594;-66
2023/08/23 00:51:41;;;;;;;;;;;;;;;17.53;77.89;100023.09;217508;1257;140220;-65
2023/08/23 00:56:49;;;;;;;2.90;2.70;;;;;;;17.36;77.62;100017.10;218233;1257;127312;-66
2023/08/23 01:01:53;;;;;;;5.00;3.40;;;;;;;17.07;77.28;100017.98;217239;1259;140773;-67
2023/08/23 01:07:14;;;;;;;7.30;3.90;;;;;;;16.87;77.63;100016.42;217561;1257;141043;-67
2023/08/23 01:12:50;;;;;;;3.60;3.30;;;;;;;16.81;78.17;100018.77;218340;1257;140411;-66
2023/08/23 01:17:53;;;;;;;5.10;4.20;;;;;;;16.75;78.24;100010.09;217456;1259;140955;-65
2023/08/23 01:23:16;;;;;;;6.30;4.30;;;;;;;16.68;78.56;100012.98;218456;1257;140480;-66
2023/08/23 01:28:20;;;;;;;9.60;4.60;;;;;;;16.69;78.88;100009.27;217391;1257;140984;-68
2023/08/23 01:33:33;;;;;;;9.70;4.60;;;;;;;16.67;79.09;100011.48;218207;1257;140648;-65
2023/08/23 01:38:39;;;;;;;7.10;4.50;;;;;;;16.64;79.15;100011.19;219078;1257;140844;-65
2023/08/23 01:43:46;;;;;;;6.60;5.50;;;;;;;16.61;79.44;100008.74;218618;1257;141094;-67
2023/08/23 01:48:49;;;;;;;7.30;5.70;;;;;;;16.62;79.63;100016.94;218904;1257;140860;-66
2023/08/23 01:53:52;;;;;;;9.00;6.90;;;;;;;16.57;79.62;100017.02;219757;1257;140654;-65
2023/08/23 01:58:55;;;;;;;16.50;7.80;;;;;;;16.57;80.03;100025.69;217945;1257;140134;-66
2023/08/23 02:03:57;;;;;;;12.70;8.40;;;;;;;16.61;80.64;100033.23;217633;1260;140783;-66
2023/08/23 02:09:00;;;;;;;10.30;7.90;;;;;;;16.63;80.86;100038.84;217416;1257;141094;-68
2023/08/23 02:14:04;;;;;;;12.40;9.30;;;;;;;16.60;81.14;100035.70;217663;1259;140173;-68
2023/08/23 02:19:06;;;;;;;11.40;10.20;;;;;;;16.58;81.49;100032.36;217371;1261;141113;-65
2023/08/23 02:24:09;;;;;;;10.10;9.20;;;;;;;16.56;81.83;100026.77;217303;1259;140327;-66
2023/08/23 02:29:12;;;;;;;13.10;10.20;;;;;;;16.54;82.12;100026.80;217435;1257;143533;-66
2023/08/23 02:34:16;;;;;;;13.00;10.10;;;;;;;16.52;82.32;100016.86;218669;1257;140917;-67
2023/08/23 02:39:20;;;;;;;12.80;11.30;;;;;;;16.49;82.45;100017.84;217571;1259;140358;-66
2023/08/23 02:44:23;;;;;;;13.00;10.90;;;;;;;16.47;82.61;100020.04;217723;1257;141178;-67
2023/08/23 02:49:26;;;;;;;12.40;11.20;;;;;;;16.45;82.77;100026.61;217843;1257;140833;-66
2023/08/23 02:54:31;;;;;;;12.50;10.10;;;;;;;16.41;82.90;100033.91;217307;1257;141210;-66
2023/08/23 02:59:34;;;;;;;11.10;9.50;;;;;;;16.36;82.89;100033.84;217149;1259;140286;-66
2023/08/23 03:04:38;;;;;;;13.60;11.10;;;;;;;16.30;82.83;100043.61;218160;1257;140534;-66
2023/08/23 03:09:41;;;;;;;15.90;10.20;;;;;;;16.24;82.83;100040.09;217949;1258;141322;-66
2023/08/23 03:14:44;;;;;;;11.70;9.70;;;;;;;16.18;82.60;100046.65;219436;1257;140537;-66
2023/08/23 03:19:47;;;;;;;11.30;8.80;;;;;;;16.10;82.31;100045.54;217900;1259;140146;-66
2023/08/23 03:24:53;;;;;;;9.20;8.40;;;;;;;15.99;81.81;100046.51;219891;1257;141177;-67
2023/08/23 03:29:56;;;;;;;9.30;8.40;;;;;;;15.86;81.64;100046.89;220120;1257;140206;-66
2023/08/23 03:34:59;;;;;;;10.00;8.30;;;;;;;15.78;81.59;100046.59;220173;1259;140690;-66
2023/08/23 03:40:02;;;;;;;12.40;8.70;;;;;;;15.71;81.51;100048.84;220110;1257;139847;-67
2023/08/23 03:45:06;;;;;;;9.70;8.80;;;;;;;15.69;81.63;100053.30;219694;1257;139825;-67
2023/08/23 03:50:10;;;;;;;7.80;7.00;;;;;;;15.66;81.50;100058.98;220287;1257;140206;-67
2023/08/23 03:55:14;;;;;;;9.30;8.20;;;;;;;15.62;81.30;100066.73;218733;1258;140711;-66
2023/08/23 04:00:18;;;;;;;11.20;8.00;;;;;;;15.58;81.21;100063.35;218945;1261;141346;-67
2023/08/23 04:05:21;;;;;;;9.10;7.80;;;;;;;15.57;81.34;100068.77;218471;1257;140759;-67
2023/08/23 04:10:24;;;;;;;8.60;7.30;;;;;;;15.48;80.76;100065.62;217522;1257;140827;-66
2023/08/23 04:15:28;;;;;;;6.30;5.70;;;;;;;15.35;80.71;100064.33;218334;1257;140282;-66
2023/08/23 04:20:35;;;;;;;10.00;6.70;;;;;;;15.23;80.83;100057.81;218400;1261;141114;-65
2023/08/23 04:25:39;;;;;;;11.20;7.80;;;;;;;15.17;81.13;100057.17;217509;1257;140325;-66
2023/08/23 04:30:44;;;;;;;8.80;7.90;;;;;;;15.21;81.68;100059.52;217461;1262;139909;-67
2023/08/23 04:35:49;;;;;;;10.60;7.80;;;;;;;15.30;81.87;100059.52;217477;1259;140025;-65
2023/08/23 04:41:03;;;;;;;10.40;7.40;;;;;;;15.37;82.02;100068.98;217826;1258;140939;-65
2023/08/23 04:46:07;;;;;;;9.00;8.00;;;;;;;15.47;82.45;100081.79;217502;1258;140497;-65
2023/08/23 04:51:11;;;;;;;6.40;5.80;;;;;;;15.54;82.52;100078.45;217848;1257;140912;-65
2023/08/23 04:56:15;;;;;;;8.80;8.00;;;;;;;15.57;82.15;100079.20;217979;1257;140470;-65
2023/08/23 05:01:19;;;;;;;6.90;6.30;;;;;;;15.61;82.41;100088.94;218262;1258;140167;-65
2023/08/23 05:06:22;;;;;;;7.70;6.20;;;;;;;15.70;82.58;100092.39;217516;1257;139758;-66
2023/08/23 05:11:25;;;;;;;10.40;7.10;;;;;;;15.80;82.68;100086.55;219278;1258;139741;-65
2023/08/23 05:16:29;;;;;;;11.30;7.10;;;;;;;15.90;82.68;100079.60;218166;1261;140706;-66
2023/08/23 05:21:32;;;;;;;6.20;5.50;;;;;;;16.00;82.73;100080.17;217724;1258;141527;-65
2023/08/23 05:26:35;;;;;;;6.50;5.90;;;;;;;16.11;82.81;100082.77;220227;1258;140078;-66
2023/08/23 05:31:39;;;;;;;12.50;6.80;;;;;;;16.23;83.07;100086.19;220183;1258;142221;-66
2023/08/23 05:36:42;;;;;;;8.90;7.20;;;;;;;16.36;83.12;100086.95;218199;1260;140883;-66
2023/08/23 05:41:45;;;;;;;13.50;7.20;;;;;;;16.52;83.19;100086.34;218724;1259;140356;-65
2023/08/23 05:46:48;;;;;;;5.70;5.10;;;;;;;16.67;83.20;100091.10;217612;1257;141410;-66
2023/08/23 05:51:52;;;;;;;6.20;5.30;;;;;;;16.81;83.23;100100.27;219229;1258;140984;-65
2023/08/23 05:56:59;;;;;;;7.20;5.00;;;;;;;16.99;83.23;100107.15;217310;1260;139954;-65
2023/08/23 06:02:02;;;;;;;8.40;5.50;;;;;;;17.43;82.41;100114.30;218321;1258;139887;-66
2023/08/23 06:13:42;;;;;;;14.70;4.50;;;;;;;17.89;81.77;100111.37;215753;1291;683797;-65
2023/08/23 06:18:45;;;;;;;6.90;4.50;;;;;;;17.96;81.68;100111.63;216102;1272;139685;-65
2023/08/23 06:23:48;;;;;;;5.00;3.90;;;;;;;18.03;81.46;100118.35;216874;1269;371481;-65
2023/08/23 06:28:52;;;;;;;5.70;3.20;;;;;;;18.14;81.11;100122.18;216641;1266;139814;-66
2023/08/23 06:33:55;;;;;;;8.50;3.80;;;;;;;18.27;80.43;100112.38;217391;1265;140106;-64
2023/08/23 06:38:58;;;;;;;6.60;3.50;;;;;;;18.38;79.70;100112.96;216640;1265;139790;-64
2023/08/23 06:44:02;;;;;;;5.70;2.90;;;;;;;18.57;79.23;100113.97;216469;1267;139982;-64
2023/08/23 06:49:06;;;;;;;5.90;3.00;;;;;;;19.30;78.32;100119.70;217291;1265;139677;-65
2023/08/23 06:54:09;;;;;;;3.60;2.30;;;;;;;20.76;77.04;100118.69;217965;1265;139344;-64
2023/08/23 06:59:11;;;;;;;3.50;2.30;;;;;;;22.57;75.15;100122.24;216526;1269;139411;-63
2023/08/23 07:04:14;;;;;;;3.70;2.40;;;;;;;24.36;72.14;100123.29;216293;1267;139440;-66
2023/08/23 07:09:18;;;;;;;4.70;2.30;;;;;;;25.59;69.33;100127.64;218352;1265;138424;-67
2023/08/23 07:14:21;;;;;;;5.60;2.60;;;;;;;26.29;66.59;100128.91;217147;1265;138484;-66
2023/08/23 07:19:24;;;;;;;3.90;2.30;;;;;;;26.26;64.18;100133.27;217875;1266;139507;-66
2023/08/23 07:24:26;;;;;;;5.20;2.10;;;;;;;26.24;63.22;100143.17;217517;1266;138532;-66
2023/08/23 07:29:29;;;;;;;5.30;2.20;;;;;;;26.56;62.38;100146.01;219419;1266;139291;-66
2023/08/23 07:34:32;;;;;;;3.20;1.90;;;;;;;26.87;60.76;100147.92;217808;1266;139685;-66
2023/08/23 07:39:34;;;;;;;2.90;2.60;;;;;;;27.12;59.99;100148.75;219438;1266;139194;-66
2023/08/23 07:44:36;;;;;;;6.10;2.10;;;;;;;27.28;58.66;100152.65;218610;1266;139441;-66
2023/08/23 07:49:38;;;;;;;3.90;2.00;;;;;;;27.26;57.41;100158.69;217249;1267;140805;-65
2023/08/23 07:54:42;;;;;;;6.40;2.70;;;;;;;27.21;56.49;100165.38;217157;1267;139457;-65
2023/08/23 07:59:45;;;;;;;5.30;2.00;;;;;;;27.19;55.64;100161.34;216814;1266;139537;-65
2023/08/23 08:04:48;;;;;;;2.00;1.80;;;;;;;27.22;55.66;100164.00;217104;1267;139446;-66
2023/08/23 08:09:51;;;;;;;2.60;2.40;;;;;;;27.21;54.24;100164.29;216652;1266;139852;-65
2023/08/23 08:14:54;;;;;;;2.90;2.00;;;;;;;27.11;54.04;100164.81;216419;1269;140816;-65
2023/08/23 08:19:56;;;;;;;2.30;2.10;;;;;;;27.12;53.37;100152.00;216656;1267;140277;-66
2023/08/23 08:25:03;;;;;;;3.50;2.20;;;;;;;27.17;53.01;100143.69;216486;1266;139488;-65
2023/08/23 08:30:06;;;;;;;8.30;2.90;;;;;;;27.15;52.14;100137.27;216632;1269;139435;-66
2023/08/23 08:35:09;;;;;;;5.50;1.90;;;;;;;27.08;51.26;100145.69;216580;1269;139332;-67
2023/08/23 08:40:13;;;;;;;2.70;1.90;;;;;;;27.03;50.58;100151.20;216604;1269;138661;-67
2023/08/23 08:45:17;;;;;;;3.90;2.30;;;;;;;26.90;50.20;100162.26;216788;1266;138594;-64
2023/08/23 08:50:25;;;;;;;2.40;2.00;;;;;;;26.97;50.43;100162.98;216292;1270;139759;-66
2023/08/23 08:55:29;;;;;;;2.10;2.00;;;;;;;27.09;50.12;100174.98;216844;1266;139069;-66
2023/08/23 09:00:33;;;;;;;3.20;1.90;;;;;;;27.21;49.37;100170.69;218268;1266;139283;-66
2023/08/23 09:05:37;;;;;;;7.00;1.90;;;;;;;27.26;48.87;100169.79;216452;1266;139170;-67
2023/08/23 09:10:42;;;;;;;2.40;1.90;;;;;;;27.38;48.08;100168.70;217757;1266;139283;-66
2023/08/23 09:15:47;;;;;;;4.50;1.80;;;;;;;27.31;47.41;100169.34;216976;1266;139167;-66
2023/08/23 09:20:51;;;;;;;1.80;1.60;;;;;;;27.33;47.41;100169.97;219160;1268;139470;-65
2023/08/23 09:25:56;;;;;;;3.40;1.60;;;;;;;27.46;47.10;100163.86;217428;1269;138888;-66
2023/08/23 09:31:00;;;;;;;3.40;2.10;;;;;;;27.58;47.10;100160.70;218010;1266;138704;-67
2023/08/23 09:36:04;;;;;;;2.90;1.60;;;;;;;27.72;47.04;100164.68;217415;1266;140160;-67
2023/08/23 09:41:07;;;;;;;2.50;1.50;;;;;;;27.82;46.25;100170.15;216749;1269;138323;-66
2023/08/23 09:46:11;;;;;;;1.20;1.10;;;;;;;27.93;45.97;100168.63;217015;1266;139575;-66
2023/08/23 09:51:16;;;;;;;2.70;1.80;;;;;;;28.01;45.61;100160.13;217895;1268;144103;-65
2023/08/23 09:56:21;;;;;;;4.20;1.60;;;;;;;28.04;44.95;100166.70;216325;1267;141393;-66
2023/08/23 10:01:26;;;;;;;2.00;1.80;;;;;;;27.97;44.51;100166.11;220067;1259;140705;-66
2023/08/23 10:06:38;;;;;;;4.90;2.10;;;;;;;28.04;44.15;100164.02;218641;1261;139498;-66
2023/08/23 10:11:43;;;;;;;1.80;1.70;;;;;;;28.12;43.59;100163.09;217219;1262;140015;-65
2023/08/23 10:16:58;;;;;;;3.40;1.50;;;;;;;28.18;43.06;100166.27;217749;1259;159366;-66
2023/08/23 10:22:02;;;;;;;2.40;2.00;;;;;;;28.15;43.44;100167.20;217831;1259;139977;-65
2023/08/23 10:27:07;;;;;;;2.90;1.50;;;;;;;28.19;43.40;100169.98;217883;1259;139028;-65
2023/08/23 10:32:11;;;;;;;1.90;1.50;;;;;;;28.21;43.08;100166.70;218246;1259;139389;-66
2023/08/23 10:37:19;;;;;;;2.00;1.30;;;;;;;28.29;43.09;100162.41;218575;1256;138974;-65
2023/08/23 10:42:27;;;;;;;2.00;1.80;;;;;;;28.38;42.68;100156.77;217444;1258;139100;-66
2023/08/23 10:47:37;;;;;;;3.10;1.50;;;;;;;28.32;41.78;100149.45;218640;1259;140521;-66
2023/08/23 10:52:41;;;;;;;1.40;1.30;;;;;;;28.35;42.01;100149.24;218011;1259;139680;-65
2023/08/23 10:57:45;;;;;;;2.80;2.20;;;;;;;28.37;42.25;100152.38;217864;1259;139048;-66
2023/08/23 11:02:50;;;;;;;;;;;;;;;28.42;42.41;100148.75;218144;1259;139258;-65
2023/08/23 11:07:57;;;;;;;4.70;2.20;;;;;;;28.38;42.13;100143.30;218870;1258;126968;-66
2023/08/23 11:13:01;;;;;;;2.50;1.40;;;;;;;28.52;42.69;100140.96;219956;1259;138850;-67
2023/08/23 11:18:05;;;;;;;3.20;1.80;;;;;;;28.56;42.19;100138.29;218974;1257;139601;-66
2023/08/23 11:23:08;;;;;;;2.60;1.90;;;;;;;28.60;41.90;100132.22;218064;1262;139921;-68
2023/08/23 11:28:16;;;;;;;9.50;2.60;;;;;;;28.61;41.64;100130.61;219613;1259;140666;-67
2023/08/23 11:33:23;;;;;;;4.00;1.80;;;;;;;28.58;41.19;100123.75;219010;1258;139141;-65
2023/08/23 11:38:33;;;;;;;2.10;1.60;;;;;;;28.47;41.26;100119.21;218654;1260;139496;-66
2023/08/23 11:43:44;;;;;;;2.30;1.50;;;;;;;28.49;41.78;100123.50;218421;1259;139613;-67
2023/08/23 11:48:49;;;;;;;2.80;1.40;;;;;;;28.60;41.39;100114.29;217684;1259;138937;-65
2023/08/23 11:54:03;;;;;;;2.50;1.70;;;;;;;28.58;41.18;100112.95;217849;1260;139880;-65
2023/08/23 11:59:19;;;;;;;2.60;1.50;;;;;;;28.34;40.71;100103.92;217289;1260;139536;-65
2023/08/23 12:04:23;;;;;;;4.10;2.00;;;;;;;28.32;40.49;100101.44;217911;1259;139366;-66
2023/08/23 12:09:27;;;;;;;4.50;2.40;;;;;;;28.33;40.68;100103.58;217399;1259;138510;-65
2023/08/23 12:14:31;;;;;;;2.00;1.70;;;;;;;28.49;41.66;100104.67;217613;1259;139784;-66
2023/08/23 12:19:36;;;;;;;2.60;2.20;;;;;;;28.56;41.05;100110.31;217451;1259;138914;-66
2023/08/23 12:24:41;;;;;;;1.70;1.60;;;;;;;28.52;40.80;100108.23;217467;1259;140435;-66
2023/08/23 12:29:45;;;;;;;4.00;1.80;;;;;;;28.42;40.62;100111.69;218519;1259;139359;-65
2023/08/23 12:34:50;;;;;;;5.90;2.60;;;;;;;28.42;41.11;100112.40;218514;1262;139356;-65
2023/08/23 12:39:54;;;;;;;2.20;1.60;;;;;;;28.52;41.13;100107.83;218301;1260;139983;-66
2023/08/23 12:44:58;;;;;;;3.00;1.80;;;;;;;28.59;40.86;100105.92;217656;1259;139993;-64
2023/08/23 12:50:05;;;;;;;1.80;1.70;;;;;;;28.59;40.70;100111.02;217357;1259;138862;-64
2023/08/23 12:55:08;;;;;;;2.70;1.50;;;;;;;28.18;40.43;100105.20;219005;1259;139563;-65
2023/08/23 13:00:12;;;;;;;3.80;2.00;;;;;;;28.21;41.05;100101.62;218214;1259;139129;-65
2023/08/23 13:05:32;;;;;;;1.80;1.70;;;;;;;28.37;40.92;100099.86;219040;1259;139222;-66
2023/08/23 13:10:38;;;;;;;1.30;1.20;;;;;;;28.53;40.97;100092.67;218387;1258;138991;-65
2023/08/23 13:15:41;;;;;;;;;;;;;;;28.56;40.65;100090.56;218823;1259;140199;-66
2023/08/23 13:20:46;;;;;;;2.30;1.60;;;;;;;28.37;40.66;100094.23;220533;1259;125458;-66
2023/08/23 13:25:50;;;;;;;1.60;1.50;;;;;;;28.18;40.73;100084.70;219441;1259;138828;-65
2023/08/23 13:30:53;;;;;;;4.10;1.30;;;;;;;28.02;41.18;100081.81;219309;1259;139091;-65
2023/08/23 13:35:56;;;;;;;1.60;1.50;;;;;;;27.93;41.02;100083.54;217492;1259;140002;-66
2023/08/23 13:40:59;;;;;;;1.50;1.40;;;;;;;27.88;41.44;100079.69;217358;1259;138695;-65
2023/08/23 13:46:03;;;;;;;4.20;1.60;;;;;;;27.88;41.36;100073.76;217952;1258;138672;-66
2023/08/23 13:51:09;;;;;;;2.50;1.90;;;;;;;27.90;41.43;100077.89;217393;1259;139262;-65
2023/08/23 13:56:14;;;;;;;2.40;1.70;;;;;;;27.77;41.00;100075.84;217425;1259;162510;-65
2023/08/23 14:01:17;;;;;;;2.80;1.90;;;;;;;27.44;41.48;100075.65;217176;1259;139319;-65
2023/08/23 14:06:22;;;;;;;1.90;1.70;;;;;;;27.25;41.70;100071.70;218002;1259;138604;-66
2023/08/23 14:11:33;;;;;;;5.50;2.00;;;;;;;27.09;41.90;100067.16;217721;1259;139181;-65
2023/08/23 14:16:37;;;;;;;3.10;1.70;;;;;;;27.12;42.10;100062.59;217407;1262;138612;-65
2023/08/23 14:21:42;;;;;;;2.80;1.70;;;;;;;27.17;42.13;100063.30;218024;1259;141207;-66
2023/08/23 14:26:46;;;;;;;2.20;1.90;;;;;;;27.21;42.06;100059.28;217222;1256;138678;-65
2023/08/23 14:31:51;;;;;;;6.10;1.80;;;;;;;27.30;42.03;100059.96;217692;1262;138591;-64
2023/08/23 14:37:03;;;;;;;2.30;1.60;;;;;;;27.25;41.71;100049.95;217836;1258;138747;-64
2023/08/23 14:42:09;;;;;;;1.30;1.10;;;;;;;27.16;41.97;100046.05;217605;1259;140036;-65
2023/08/23 14:47:13;;;;;;;1.30;1.30;;;;;;;27.10;42.19;100047.02;219027;1259;139330;-65
2023/08/23 14:52:18;;;;;;;20.10;2.90;;;;;;;27.01;42.07;100047.84;218322;1262;140748;-66
2023/08/23 14:57:21;;;;;;;3.20;1.80;;;;;;;26.82;42.31;100032.48;218146;1258;140744;-66
2023/08/23 15:02:29;;;;;;;11.50;2.10;;;;;;;26.66;42.81;100030.64;217287;1258;139230;-65
2023/08/23 15:07:35;;;;;;;3.70;1.80;;;;;;;26.61;42.78;100033.23;217578;1260;246115;-65
2023/08/23 15:12:39;;;;;;;;;;;;;;;26.54;42.84;100035.13;217966;1260;139905;-65
2023/08/23 15:17:44;;;;;;;1.80;1.70;;;;;;;26.50;43.17;100031.68;219008;1259;126525;-65
2023/08/23 15:22:51;;;;;;;15.70;2.30;;;;;;;26.55;42.93;100029.69;218842;1259;139620;-68
2023/08/23 15:27:56;;;;;;;1.40;1.30;;;;;;;26.54;42.81;100031.59;217586;1259;140001;-66
2023/08/23 15:33:03;;;;;;;2.00;1.90;;;;;;;26.49;42.54;100031.88;217342;1259;139731;-65
2023/08/23 15:38:08;;;;;;;6.40;1.70;;;;;;;26.49;42.92;100034.23;218695;1260;140198;-65
2023/08/23 15:43:14;;;;;;;2.40;1.50;;;;;;;26.41;43.59;100032.73;218347;1262;138901;-65
2023/08/23 15:48:22;;;;;;;4.80;1.50;;;;;;;26.28;43.05;100032.63;218194;1260;139001;-64
2023/08/23 15:53:27;;;;;;;3.90;2.10;;;;;;;26.15;43.07;100023.54;217253;1259;150875;-65
2023/08/23 15:58:31;;;;;;;9.60;2.70;;;;;;;26.04;43.00;100014.41;217513;1260;139328;-64
2023/08/23 16:03:35;;;;;;;2.50;1.60;;;;;;;25.95;42.61;100009.23;217309;1259;139259;-64
2023/08/23 16:08:39;;;;;;;1.50;1.40;;;;;;;25.85;43.36;100008.77;217353;1259;139613;-64
2023/08/23 16:13:47;;;;;;;3.30;2.20;;;;;;;25.72;43.57;100002.16;218426;1260;139870;-65
2023/08/23 16:18:51;;;;;;;7.10;4.10;;;;;;;25.60;44.34;100003.56;217224;1262;139978;-64
2023/08/23 16:23:56;;;;;;;3.70;3.40;;;;;;;25.43;45.01;100003.45;217448;1259;139021;-65
2023/08/23 16:29:03;;;;;;;2.80;2.70;;;;;;;25.27;45.73;100003.16;217417;1259;139368;-65
2023/08/23 16:34:08;;;;;;;2.20;1.80;;;;;;;25.06;46.35;100001.90;217405;1262;139112;-64
2023/08/23 16:39:13;;;;;;;24.10;6.20;;;;;;;24.87;46.77;100002.89;217646;1262;138898;-64
2023/08/23 16:44:16;;;;;;;25.80;6.00;;;;;;;24.69;47.83;100013.80;218614;1259;139307;-65
2023/08/23 16:49:20;;;;;;;9.60;4.30;;;;;;;24.47;48.60;100012.26;217562;1261;138996;-64
2023/08/23 16:54:24;;;;;;;13.80;3.70;;;;;;;24.23;49.49;100007.48;217865;1260;140059;-64
2023/08/23 16:59:28;;;;;;;3.70;2.30;;;;;;;24.00;50.45;100012.88;218751;1259;139448;-66
2023/08/23 17:04:31;;;;;;;13.50;4.00;;;;;;;23.76;51.39;100017.27;218187;1260;139261;-66
2023/08/23 17:09:34;;;;;;;2.60;2.30;;;;;;;23.54;52.53;100019.41;218844;1260;140036;-65
2023/08/23 17:14:37;;;;;;;4.30;2.70;;;;;;;23.32;53.34;100020.30;218003;1262;139286;-67
2023/08/23 17:19:40;;;;;;;1.90;1.40;;;;;;;23.07;53.88;100025.02;217716;1260;139840;-67
2023/08/23 17:24:43;;;;;;;2.30;2.10;;;;;;;22.78;53.90;100027.95;217824;1260;139353;-65
2023/08/23 17:29:47;;;;;;;8.10;2.30;;;;;;;22.51;54.33;100026.41;218980;1259;139477;-65
2023/08/23 17:34:51;;;;;;;3.20;2.00;;;;;;;22.24;55.28;100027.13;218521;1260;139498;-64
2023/08/23 17:39:53;;;;;;;3.40;2.10;;;;;;;22.03;56.14;100027.76;218460;1262;139320;-64
2023/08/23 17:44:58;;;;;;;1.80;1.70;;;;;;;21.82;57.00;100025.69;218445;1259;139317;-64
2023/08/23 17:50:05;;;;;;;5.70;1.80;;;;;;;21.54;57.79;100030.52;217441;1258;139016;-64
2023/08/23 17:55:09;;;;;;;1.90;1.80;;;;;;;21.16;58.34;100040.45;217640;1260;228971;-63
2023/08/23 18:00:13;;;;;;;2.90;1.90;;;;;;;20.74;58.75;100044.42;218206;1259;139135;-66
2023/08/23 18:05:17;;;;;;;2.20;1.50;;;;;;;20.42;59.18;100043.95;217738;1260;139117;-65
2023/08/23 18:10:20;;;;;;;1.80;1.70;;;;;;;20.21;59.56;100046.07;218653;1260;139517;-64
2023/08/23 18:15:23;;;;;;;2.70;2.40;;;;;;;19.96;59.96;100050.27;217384;1261;139835;-64
2023/08/23 18:20:26;;;;;;;2.60;1.90;;;;;;;19.71;60.68;100057.55;218171;1260;141040;-65
2023/08/23 18:25:28;;;;;;;2.40;2.20;;;;;;;19.47;61.14;100064.21;217164;1258;636181;-66
2023/08/23 18:30:35;;;;;;;2.30;2.10;;;;;;;19.22;61.73;100068.59;217486;1260;140616;-67
2023/08/23 18:35:38;;;;;;;2.10;2.00;;;;;;;18.99;62.21;100067.38;218203;1262;140438;-68
2023/08/23 18:40:42;;;;;;;2.90;2.50;;;;;;;18.82;62.77;100075.05;217878;1259;139940;-66
2023/08/23 18:45:45;;;;;;;4.50;2.70;;;;;;;18.65;63.11;100078.79;217423;1259;140315;-66
2023/08/23 18:50:49;;;;;;;2.90;2.70;;;;;;;18.49;63.57;100077.77;217291;1262;139686;-66
2023/08/23 18:55:53;;;;;;;3.00;2.70;;;;;;;18.43;64.10;100081.74;219788;1259;140325;-66
2023/08/23 19:00:58;;;;;;;3.30;2.90;;;;;;;18.40;64.65;100084.29;217738;1259;140066;-66
2023/08/23 19:06:02;;;;;;;2.80;2.60;;;;;;;18.39;65.09;100088.30;217744;1262;140374;-69
2023/08/23 19:11:04;;;;;;;4.60;2.40;;;;;;;18.17;65.20;100086.72;219284;1260;140817;-68
2023/08/23 19:16:07;;;;;;;3.10;2.90;;;;;;;18.00;65.62;100094.09;219278;1263;140420;-67
2023/08/23 19:21:11;;;;;;;2.40;2.20;;;;;;;17.97;66.24;100096.20;218612;1262;141646;-66
2023/08/23 19:26:14;;;;;;;3.00;2.70;;;;;;;17.88;66.59;100098.16;217286;1260;141930;-65
2023/08/23 19:31:18;;;;;;;2.90;2.70;;;;;;;17.78;67.17;100091.16;217582;1261;141342;-65
2023/08/23 19:36:22;;;;;;;5.20;3.20;;;;;;;17.63;67.40;100094.85;217428;1259;141290;-66
2023/08/23 19:41:25;;;;;;;2.80;2.60;;;;;;;17.52;67.93;100095.55;217692;1262;139973;-67
2023/08/23 19:46:29;;;;;;;3.30;3.00;;;;;;;17.48;68.42;100098.14;217272;1261;140551;-68
2023/08/23 19:51:34;;;;;;;4.60;3.30;;;;;;;17.44;68.74;100098.73;217833;1260;139983;-66
2023/08/23 19:56:37;;;;;;;6.40;2.70;;;;;;;17.39;69.18;100093.96;217288;1263;139861;-66
2023/08/23 20:01:43;;;;;;;3.50;3.20;;;;;;;17.30;69.60;100087.91;218039;1260;140742;-65
2023/08/23 20:06:47;;;;;;;4.70;3.50;;;;;;;17.20;69.95;100087.31;217316;1260;140772;-66
2023/08/23 20:11:52;;;;;;;4.00;3.70;;;;;;;17.18;70.45;100087.42;217451;1260;140053;-66
2023/08/23 20:17:00;;;;;;;3.90;3.20;;;;;;;17.17;70.62;100085.39;217563;1260;140078;-66
2023/08/23 20:22:04;;;;;;;3.70;3.40;;;;;;;17.16;70.96;100085.44;217717;1259;139988;-65
2023/08/23 20:27:07;;;;;;;3.90;3.50;;;;;;;17.04;70.97;100091.31;217727;1260;139652;-67
2023/08/23 20:32:11;;;;;;;6.20;4.00;;;;;;;16.91;71.15;100091.77;218128;1259;140687;-67
2023/08/23 20:37:15;;;;;;;4.40;3.60;;;;;;;16.81;71.54;100091.39;217604;1261;140479;-69
2023/08/23 20:42:19;;;;;;;4.30;3.50;;;;;;;16.71;72.00;100086.16;218367;1261;140269;-67
2023/08/23 20:47:22;;;;;;;6.60;3.40;;;;;;;16.60;72.38;100085.45;217615;1260;140733;-66
2023/08/23 20:52:27;;;;;;;4.30;3.90;;;;;;;16.55;72.96;100090.43;217283;1260;139746;-66
2023/08/23 20:57:30;;;;;;;5.50;3.80;;;;;;;16.56;73.22;100088.83;219511;1259;140002;-66
2023/08/23 21:02:35;;;;;;;7.70;3.40;;;;;;;16.53;73.23;100083.77;217873;1262;140362;-68
2023/08/23 21:07:37;;;;;;;3.70;3.40;;;;;;;16.48;73.45;100090.17;219578;1260;140940;-70
2023/08/23 21:12:40;;;;;;;4.50;3.20;;;;;;;16.42;73.57;100084.13;218413;1259;140507;-68
2023/08/23 21:17:44;;;;;;;6.30;4.10;;;;;;;16.37;73.94;100084.64;218811;1262;140337;-69
2023/08/23 21:22:47;;;;;;;4.50;4.10;;;;;;;16.39;74.16;100084.54;217832;1260;141229;-68
2023/08/23 21:27:50;;;;;;;6.40;4.20;;;;;;;16.38;74.28;100083.56;217413;1259;140002;-70
2023/08/23 21:32:54;;;;;;;13.10;7.20;;;;;;;16.33;74.21;100081.17;217618;1259;141234;-67
2023/08/23 21:38:00;;;;;;;11.80;6.20;;;;;;;16.24;74.47;100074.31;218013;1260;140352;-68
2023/08/23 21:43:04;;;;;;;12.90;7.20;;;;;;;16.19;74.75;100076.95;217370;1260;140280;-65
2023/08/23 21:48:07;;;;;;;10.90;6.10;;;;;;;16.17;75.03;100072.95;217683;1260;141713;-67
2023/08/23 21:53:10;;;;;;;7.40;6.00;;;;;;;16.10;75.16;100075.66;217499;1260;140041;-66
2023/08/23 21:58:14;;;;;;;8.10;5.50;;;;;;;15.97;75.37;100069.29;217757;1260;140004;-66
2023/08/23 22:03:38;;;;;;;5.40;4.90;;;;;;;15.85;75.70;100064.09;218704;1259;140076;-66
2023/08/23 22:08:46;;;;;;;4.40;3.90;;;;;;;15.76;76.10;100062.27;217370;1260;139768;-65
2023/08/23 22:13:49;;;;;;;4.10;3.10;;;;;;;15.73;76.36;100065.10;217809;1259;140711;-68
2023/08/23 22:18:53;;;;;;;6.30;3.90;;;;;;;15.76;76.64;100064.90;218256;1258;140675;-67
2023/08/23 22:23:55;;;;;;;3.90;3.60;;;;;;;15.77;76.54;100068.84;216890;1259;139816;-66
2023/08/23 22:28:58;;;;;;;4.70;3.70;;;;;;;15.72;76.48;100070.45;217319;1261;140361;-69
2023/08/23 22:34:00;;;;;;;5.60;3.50;;;;;;;15.63;76.44;100065.30;217394;1259;141842;-68
2023/08/23 22:39:03;;;;;;;11.60;5.80;;;;;;;15.59;76.58;100061.63;217100;1262;139703;-68
2023/08/23 22:44:07;;;;;;;5.10;3.90;;;;;;;15.54;76.50;100063.20;217230;1260;140302;-69
2023/08/23 22:49:11;;;;;;;3.90;3.60;;;;;;;15.50;76.68;100063.85;219194;1259;140984;-66
2023/08/23 22:54:14;;;;;;;4.70;4.00;;;;;;;15.44;76.74;100067.47;217422;1259;140532;-66
2023/08/23 22:59:16;;;;;;;3.60;3.20;;;;;;;15.38;76.72;100064.20;219749;1259;139772;-68
2023/08/23 23:04:22;;;;;;;4.30;3.40;;;;;;;15.21;76.70;100066.71;217442;1258;141217;-70
2023/08/23 23:09:26;;;;;;;6.90;3.40;;;;;;;15.09;77.22;100064.36;218039;1259;140834;-68